Long Eddy, New York
Current Conditions -  °F | °C
As of 9:35 PM on Saturday 22 Nov 2014 (Local Time) from KMSV Reporting Station
Overcast Overcast  
Wind Chill: 36°   Ceiling: 4400
Heat Index: 36°   Visibility: 10mi
Dew Point: 25°   Wind: 3mph
Humidity: 65%   Direction: 280°W
Pressure: 30.13"   Gusts: NA
Location:  41.85°N, 75.13°W
Report Text: KMSV 230235Z AUTO 28003KT 10SM BKN044 OVC050 02/M04 A3013 RMK AO1
Loading
Personal Weather Stations






























Interactive Weather Map New forecast layout! Learn more

10-Day Weather Forecast

Advertisements
Track Severe Weather on mobile